Disclaimer

Please do not use the information listed here in-flight or in-navigation, as they are not provided to us by the airports but are provided by volunteers, so they might be outdated.

Search


Regions


Airport information page

No radio frequency information is available.

Airport informations:
Latitude: 64° 34' 44.70" N
Longitude: 016° 50' 00.87" E
Elevation: 1140 feet - 347 meters
Operating hours: NO OPERATING HOURS LISTED
Operating agency: Civil government, landing fees and diplomatic clearance may be required
Timezone: UTC+1(+2DT) - Last Sunday in March to last Sunday in October
Fuel: Jet A1, without icing nhibitor.

100/130 MIL Spec, low lead, aviation gasoline (BLUE)

Runway information:
10/28 - 4928 x 98 feet< - >1502 x 30 meters

Recent METARs:
ESNV 202250Z AUTO 00000KT 0300 R10/0800N R28/P2000N OVC003/// M12/M14 Q1036
ESNV 202320Z AUTO 00000KT 0200 R10/0900N R28/1100D FZFG OVC003/// M11/M14 Q1036
ESNV 202350Z AUTO 00000KT 0400 R10/1400D R28/P2000N OVC003/// M12/M14 Q1036

Airport on the map: